Time;durP1;ratioP1;P1;durP2;ratioP2;P2;SDS_P1;SDS_P2;PMS_P1;PMS_P2;Temp;Humidity;BMP_temperature;BMP_pressure;BME280_temperature;BME280_humidity;BME280_pressure;Samples;Min_cycle;Max_cycle;Signal;HPM_P1;HPM_P2
2022/09/04 00:01:45;;;;;;;1.95;0.80;;;17.20;89.30;;;;;;4996269;28;20402;-80
2022/09/04 00:04:43;;;;;;;3.83;0.95;;;17.20;88.70;;;;;;4995936;28;20051;-80
2022/09/04 00:07:25;;;;;;;0.90;0.75;;;17.20;88.00;;;;;;4996801;28;20057;-80
2022/09/04 00:10:02;;;;;;;3.30;0.90;;;17.20;89.40;;;;;;4995851;28;20073;-79
2022/09/04 00:12:33;;;;;;;1.95;0.90;;;17.10;89.80;;;;;;4997229;28;20065;-80
2022/09/04 00:15:13;;;;;;;1.52;0.88;;;17.10;89.80;;;;;;4997356;28;20039;-79
2022/09/04 00:18:14;;;;;;;1.95;0.70;;;17.20;88.90;;;;;;4997139;28;20482;-79
2022/09/04 00:20:49;;;;;;;1.23;0.70;;;17.10;88.80;;;;;;4997400;28;20494;-80
2022/09/04 00:23:29;;;;;;;2.53;0.90;;;17.10;89.60;;;;;;4997860;28;20046;-80
2022/09/04 00:26:07;;;;;;;1.98;1.00;;;17.10;90.00;;;;;;4997151;28;20050;-80
2022/09/04 00:28:54;;;;;;;1.50;0.80;;;17.10;89.00;;;;;;4997951;28;20050;-80
2022/09/04 00:31:37;;;;;;;3.55;0.90;;;17.10;90.00;;;;;;4997292;28;20042;-80
2022/09/04 00:34:22;;;;;;;1.95;0.98;;;17.10;90.30;;;;;;4996960;28;20125;-79
2022/09/04 00:36:53;;;;;;;1.95;0.90;;;17.00;90.20;;;;;;4996713;28;20050;-80
2022/09/04 00:39:25;;;;;;;2.30;0.85;;;17.00;90.00;;;;;;4995822;28;20093;-80
2022/09/04 00:41:57;;;;;;;1.87;0.80;;;17.00;90.10;;;;;;4996923;28;20569;-80
2022/09/04 00:44:39;;;;;;;1.42;0.80;;;17.00;90.10;;;;;;4996842;28;20314;-80
2022/09/04 00:47:38;;;;;;;2.60;0.90;;;16.90;90.30;;;;;;4997228;28;20093;-80
2022/09/04 00:50:24;;;;;;;1.35;0.95;;;16.90;89.80;;;;;;4996041;28;20048;-80
2022/09/04 00:53:15;;;;;;;3.47;0.90;;;16.90;90.40;;;;;;4996486;28;20133;-80
2022/09/04 00:56:06;;;;;;;1.95;1.00;;;16.90;91.20;;;;;;4996651;28;20121;-80
2022/09/04 00:58:54;;;;;;;1.10;0.80;;;16.80;90.90;;;;;;4995449;28;20065;-80
2022/09/04 01:01:26;;;;;;;2.72;1.00;;;16.70;91.30;;;;;;4996259;28;20052;-80
2022/09/04 01:04:28;;;;;;;1.25;0.82;;;16.70;91.00;;;;;;4997004;28;20054;-80
2022/09/04 01:07:22;;;;;;;3.28;1.00;;;16.70;90.50;;;;;;4996465;28;20046;-80
2022/09/04 01:10:14;;;;;;;1.75;0.80;;;16.60;90.40;;;;;;4995291;28;20046;-80
2022/09/04 01:13:10;;;;;;;2.08;1.00;;;16.70;90.30;;;;;;4996981;28;20136;-80
2022/09/04 01:16:17;;;;;;;1.27;0.85;;;16.60;90.30;;;;;;4996336;28;20054;-80
2022/09/04 01:18:57;;;;;;;3.00;0.77;;;16.60;90.40;;;;;;4983969;28;20054;-81
2022/09/04 01:21:34;;;;;;;1.80;0.80;;;16.60;90.30;;;;;;4996188;28;20096;-80
2022/09/04 01:24:23;;;;;;;1.38;0.90;;;16.50;90.90;;;;;;4995277;28;20051;-80
2022/09/04 01:27:06;;;;;;;2.15;0.93;;;16.40;91.00;;;;;;4995392;28;20141;-80
2022/09/04 01:29:59;;;;;;;2.50;1.10;;;16.50;90.60;;;;;;4996053;28;20137;-80
2022/09/04 01:32:25;;;;;;;;;;;16.50;90.90;;;;;;4996467;28;20054;-80
2022/09/04 01:35:00;;;;;;;3.63;0.90;;;16.50;91.30;;;;;;4996012;28;19936;-80
2022/09/04 01:37:41;;;;;;;2.08;1.00;;;16.50;91.30;;;;;;4996506;28;20054;-80
2022/09/04 01:40:35;;;;;;;1.13;0.80;;;16.40;91.20;;;;;;4995787;28;20054;-80
2022/09/04 01:43:10;;;;;;;1.58;1.00;;;16.30;91.20;;;;;;4996403;28;20065;-80
2022/09/04 01:46:13;;;;;;;1.77;1.15;;;16.30;91.40;;;;;;4995887;28;20042;-80
2022/09/04 01:49:12;;;;;;;3.08;0.82;;;16.30;91.60;;;;;;4995623;28;20065;-80
2022/09/04 01:51:44;;;;;;;1.83;0.90;;;16.30;91.70;;;;;;4994664;28;20058;-80
2022/09/04 01:54:25;;;;;;;2.42;0.90;;;16.30;92.00;;;;;;4995578;28;20054;-80
2022/09/04 01:57:17;;;;;;;1.65;0.80;;;16.30;92.00;;;;;;4995442;28;20101;-79
2022/09/04 02:00:09;;;;;;;5.47;1.00;;;16.20;92.10;;;;;;4995914;28;20057;-80
2022/09/04 02:02:46;;;;;;;1.13;0.90;;;16.10;91.90;;;;;;4996443;28;20054;-80
2022/09/04 02:05:37;;;;;;;2.25;0.93;;;16.10;92.20;;;;;;4995873;28;20045;-80
2022/09/04 02:08:27;;;;;;;4.63;0.90;;;16.20;91.70;;;;;;4995309;28;20050;-80
2022/09/04 02:11:05;;;;;;;2.25;1.00;;;16.10;91.70;;;;;;4996064;28;20153;-80
2022/09/04 02:13:55;;;;;;;2.75;0.90;;;16.10;92.00;;;;;;4994185;28;20073;-80
2022/09/04 02:16:45;;;;;;;1.80;0.90;;;16.10;91.80;;;;;;4995128;28;20061;-80
2022/09/04 02:19:40;;;;;;;1.75;1.00;;;16.00;91.90;;;;;;4995067;28;20050;-80
2022/09/04 02:22:14;;;;;;;1.33;0.77;;;16.10;91.90;;;;;;4994827;28;20104;-80
2022/09/04 02:25:24;;;;;;;1.98;1.05;;;16.00;92.00;;;;;;4994963;28;20470;-80
2022/09/04 02:28:12;;;;;;;2.05;1.00;;;16.00;92.00;;;;;;4994326;28;20058;-80
2022/09/04 02:30:55;;;;;;;2.42;1.00;;;16.00;92.10;;;;;;4994763;28;20053;-80
2022/09/04 02:33:42;;;;;;;1.40;0.90;;;15.90;92.30;;;;;;4995409;28;20046;-80
2022/09/04 02:36:34;;;;;;;1.92;1.02;;;15.90;92.20;;;;;;4993987;28;20073;-80
2022/09/04 02:39:35;;;;;;;3.15;1.05;;;16.00;92.80;;;;;;4995588;28;20387;-80
2022/09/04 02:42:11;;;;;;;2.67;1.00;;;15.90;92.60;;;;;;4993992;28;20133;-80
2022/09/04 02:45:11;;;;;;;2.25;1.00;;;15.90;92.60;;;;;;4994610;28;20053;-80
2022/09/04 02:48:04;;;;;;;2.20;1.02;;;15.80;92.50;;;;;;4994626;28;20047;-80
2022/09/04 02:50:52;;;;;;;2.55;0.85;;;15.80;92.80;;;;;;4994517;28;20046;-80
2022/09/04 02:53:43;;;;;;;2.83;0.90;;;15.80;92.80;;;;;;4994515;28;20058;-80
2022/09/04 02:56:23;;;;;;;2.72;1.00;;;15.80;92.90;;;;;;4993445;28;20391;-80
2022/09/04 02:58:53;;;;;;;2.72;1.08;;;15.80;93.00;;;;;;4994888;28;20094;-80
2022/09/04 03:01:34;;;;;;;1.23;0.90;;;15.70;93.50;;;;;;4994296;28;20100;-79
2022/09/04 03:04:11;;;;;;;2.45;0.90;;;15.70;93.10;;;;;;4993082;28;20107;-80
2022/09/04 03:06:52;;;;;;;2.10;0.98;;;15.70;93.60;;;;;;4994731;28;20054;-80
2022/09/04 03:09:28;;;;;;;1.95;1.00;;;15.60;94.20;;;;;;4994194;28;20417;-80
2022/09/04 03:12:03;;;;;;;1.50;1.10;;;15.70;94.50;;;;;;4977478;28;20093;-80
2022/09/04 03:14:39;;;;;;;1.20;0.88;;;15.60;94.40;;;;;;4994894;28;20146;-80
2022/09/04 03:17:14;;;;;;;2.33;1.17;;;15.60;94.50;;;;;;4994304;28;20097;-80
2022/09/04 03:19:53;;;;;;;3.03;1.10;;;15.60;94.40;;;;;;4993829;28;20046;-80
2022/09/04 03:22:35;;;;;;;2.15;1.00;;;15.50;95.10;;;;;;4994225;28;20066;-79
2022/09/04 03:25:19;;;;;;;3.25;1.13;;;15.50;94.60;;;;;;4994170;28;20055;-80
2022/09/04 03:27:45;;;;;;;1.40;1.15;;;15.50;94.90;;;;;;4995045;28;20042;-80
2022/09/04 03:30:13;;;;;;;2.30;1.00;;;15.40;95.70;;;;;;4993079;28;20445;-80
2022/09/04 03:32:46;;;;;;;1.98;1.10;;;15.50;95.70;;;;;;4992950;28;20061;-80
2022/09/04 03:35:28;;;;;;;5.10;1.20;;;15.40;95.50;;;;;;4994817;28;20085;-80
2022/09/04 03:38:12;;;;;;;2.35;0.95;;;15.50;95.00;;;;;;4994055;28;20060;-80
2022/09/04 03:40:40;;;;;;;2.05;1.10;;;15.40;95.40;;;;;;4993949;28;20383;-80
2022/09/04 03:43:23;;;;;;;2.45;1.00;;;15.30;95.30;;;;;;4994857;28;20054;-80
2022/09/04 03:46:09;;;;;;;2.95;1.10;;;15.40;95.00;;;;;;4992756;28;20414;-80
2022/09/04 03:49:00;;;;;;;1.27;1.00;;;15.30;94.80;;;;;;4994839;28;20046;-80
2022/09/04 03:51:44;;;;;;;1.25;1.00;;;15.30;94.80;;;;;;4993932;28;20059;-80
2022/09/04 03:54:51;;;;;;;2.25;1.20;;;15.30;94.80;;;;;;4993324;28;20058;-79
2022/09/04 03:57:44;;;;;;;1.23;1.00;;;15.20;94.60;;;;;;4991500;28;20058;-80
2022/09/04 04:00:18;;;;;;;2.13;1.20;;;15.20;94.70;;;;;;4994697;28;20042;-80
2022/09/04 04:02:59;;;;;;;2.53;1.10;;;15.20;95.50;;;;;;4993891;28;20109;-80
2022/09/04 04:05:45;;;;;;;2.47;1.70;;;15.20;94.80;;;;;;4994395;28;20430;-80
2022/09/04 04:08:38;;;;;;;2.03;1.00;;;15.20;94.80;;;;;;4997116;28;20134;-80
2022/09/04 04:11:22;;;;;;;1.70;1.15;;;15.20;94.90;;;;;;4997517;28;20093;-80
2022/09/04 04:13:54;;;;;;;1.75;1.08;;;15.20;95.00;;;;;;4997438;28;20061;-80
2022/09/04 04:16:50;;;;;;;1.58;1.30;;;15.20;95.00;;;;;;4996152;28;20051;-80
2022/09/04 04:19:37;;;;;;;2.45;1.10;;;15.20;94.90;;;;;;4997904;28;20054;-80
2022/09/04 04:22:23;;;;;;;1.02;0.90;;;15.10;95.10;;;;;;4997262;28;20053;-80
2022/09/04 04:25:08;;;;;;;2.45;1.30;;;15.00;95.00;;;;;;4996901;28;20085;-80
2022/09/04 04:27:45;;;;;;;1.75;1.08;;;15.00;95.10;;;;;;4997787;28;20101;-80
2022/09/04 04:30:15;;;;;;;1.92;1.05;;;15.00;95.30;;;;;;4996996;28;20101;-80
2022/09/04 04:33:10;;;;;;;1.50;1.10;;;15.00;95.90;;;;;;4996364;28;20364;-80
2022/09/04 04:35:56;;;;;;;2.13;1.00;;;15.10;95.40;;;;;;4996968;28;20125;-80
2022/09/04 04:38:58;;;;;;;2.30;1.23;;;15.00;95.40;;;;;;4996675;28;20386;-80
2022/09/04 04:42:04;;;;;;;1.50;1.10;;;15.00;95.60;;;;;;4996982;28;20042;-80
2022/09/04 04:47:39;;;;;;;2.38;1.20;;;15.00;95.60;;;;;;4996910;28;20057;-79
2022/09/04 04:50:19;;;;;;;1.40;1.10;;;14.90;96.40;;;;;;4995635;28;20046;-80
2022/09/04 04:53:04;;;;;;;2.72;1.45;;;14.90;96.40;;;;;;4996592;28;20545;-80
2022/09/04 04:55:38;;;;;;;2.70;1.40;;;14.90;96.10;;;;;;4996286;28;20054;-80
2022/09/04 04:58:42;;;;;;;2.05;1.20;;;14.90;96.40;;;;;;4996587;28;20141;-80
2022/09/04 05:01:33;;;;;;;2.20;1.10;;;14.80;96.80;;;;;;4978602;28;20563;-80
2022/09/04 05:04:11;;;;;;;2.67;1.55;;;14.90;97.10;;;;;;4995392;28;20050;-80
2022/09/04 05:06:58;;;;;;;2.55;1.30;;;14.70;97.10;;;;;;4996530;28;20042;-80
2022/09/04 05:09:46;;;;;;;2.00;1.30;;;14.90;97.40;;;;;;4995463;28;20395;-80
2022/09/04 05:12:31;;;;;;;2.10;1.20;;;14.80;96.90;;;;;;4996453;28;20061;-80
2022/09/04 05:15:09;;;;;;;2.15;1.40;;;14.80;97.70;;;;;;4996261;28;20046;-80
2022/09/04 05:17:56;;;;;;;1.27;1.00;;;14.80;97.60;;;;;;4996873;28;20053;-80
2022/09/04 05:20:33;;;;;;;3.97;1.33;;;14.90;97.00;;;;;;4995432;28;20050;-80
2022/09/04 05:23:05;;;;;;;2.10;1.27;;;14.80;96.80;;;;;;4996187;28;20093;-80
2022/09/04 05:25:49;;;;;;;2.53;1.20;;;14.80;96.70;;;;;;4996600;28;20038;-80
2022/09/04 05:28:47;;;;;;;1.42;1.10;;;14.90;96.80;;;;;;4996095;28;20269;-81
2022/09/04 05:31:16;;;;;;;2.22;1.20;;;14.90;96.80;;;;;;4995919;28;20042;-80
2022/09/04 05:34:23;;;;;;;2.92;1.20;;;14.90;97.20;;;;;;4995935;28;20050;-80
2022/09/04 05:37:26;;;;;;;1.63;1.20;;;15.00;96.60;;;;;;4995718;28;20196;-80
2022/09/04 05:40:03;;;;;;;1.55;1.13;;;15.00;96.50;;;;;;4995881;28;20057;-80
2022/09/04 05:43:00;;;;;;;2.10;1.20;;;15.00;96.50;;;;;;4996643;28;20058;-81
2022/09/04 05:45:44;;;;;;;1.98;1.00;;;15.00;96.70;;;;;;4995944;28;20368;-80
2022/09/04 05:48:25;;;;;;;2.63;1.25;;;15.00;96.80;;;;;;4995609;28;20053;-81
2022/09/04 05:51:13;;;;;;;2.05;1.30;;;15.00;97.20;;;;;;4995290;28;20557;-80
2022/09/04 05:53:57;;;;;;;1.48;1.17;;;15.10;96.80;;;;;;4995588;28;20478;-80
2022/09/04 05:56:37;;;;;;;3.17;1.10;;;15.10;97.50;;;;;;4995501;28;20046;-80
2022/09/04 05:59:17;;;;;;;2.22;1.05;;;15.10;96.90;;;;;;4995351;28;20379;-80
2022/09/04 06:01:56;;;;;;;3.67;1.25;;;15.10;96.60;;;;;;4995252;28;20065;-80
2022/09/04 06:04:53;;;;;;;3.35;1.20;;;15.10;97.00;;;;;;4995866;28;20133;-80
2022/09/04 06:07:47;;;;;;;1.80;1.00;;;15.10;96.50;;;;;;4996120;28;20116;-80
2022/09/04 06:10:34;;;;;;;3.33;1.13;;;15.10;96.40;;;;;;4995881;28;20042;-80
2022/09/04 06:13:26;;;;;;;4.68;1.30;;;15.20;96.40;;;;;;4995127;28;20054;-80
2022/09/04 06:16:00;;;;;;;2.13;1.25;;;15.20;96.40;;;;;;4995879;28;20082;-80
2022/09/04 06:18:46;;;;;;;3.40;1.27;;;15.20;96.30;;;;;;4995198;28;20050;-80
2022/09/04 06:21:45;;;;;;;1.88;1.13;;;15.30;96.50;;;;;;4995096;28;20061;-80
2022/09/04 06:24:19;;;;;;;3.67;1.23;;;15.30;96.30;;;;;;4995131;28;20050;-81
2022/09/04 06:27:17;;;;;;;3.30;1.20;;;15.30;96.70;;;;;;4995539;28;20054;-81
2022/09/04 06:30:06;;;;;;;3.15;1.67;;;15.40;96.30;;;;;;4988493;28;20101;-82
2022/09/04 06:33:10;;;;;;;4.60;1.15;;;15.60;96.40;;;;;;4994817;28;20050;-80
2022/09/04 06:35:36;;;;;;;2.47;1.40;;;15.60;96.60;;;;;;4993834;28;20407;-80
2022/09/04 06:38:20;;;;;;;1.70;1.30;;;15.60;97.10;;;;;;4994371;28;20054;-81
2022/09/04 06:41:03;;;;;;;3.00;1.38;;;15.70;96.50;;;;;;4995339;28;20046;-81
2022/09/04 06:43:53;;;;;;;2.77;1.70;;;15.70;96.90;;;;;;4994666;28;20557;-81
2022/09/04 06:46:26;;;;;;;1.75;1.38;;;15.80;96.40;;;;;;4993920;28;20046;-81
2022/09/04 06:49:03;;;;;;;2.60;1.15;;;15.80;96.40;;;;;;4993542;28;20043;-81
2022/09/04 06:51:32;;;;;;;2.88;1.58;;;15.80;96.20;;;;;;4994536;28;20065;-81
2022/09/04 06:54:12;;;;;;;3.20;1.33;;;15.90;96.00;;;;;;4995206;28;20046;-81
2022/09/04 06:56:59;;;;;;;2.65;1.42;;;16.00;95.90;;;;;;4994516;28;20067;-81
2022/09/04 06:59:55;;;;;;;3.97;1.40;;;15.90;95.60;;;;;;4994446;28;20069;-81
2022/09/04 07:02:24;;;;;;;2.03;1.33;;;16.10;95.80;;;;;;4994612;28;20051;-81
2022/09/04 07:05:24;;;;;;;4.07;1.38;;;16.00;96.10;;;;;;4994216;28;20049;-81
2022/09/04 07:07:58;;;;;;;2.47;1.42;;;16.10;95.50;;;;;;4994635;28;20081;-80
2022/09/04 07:10:31;;;;;;;2.47;1.50;;;16.10;95.50;;;;;;4994342;28;20042;-81
2022/09/04 07:13:03;;;;;;;2.47;1.60;;;16.10;96.10;;;;;;4994203;28;20054;-81
2022/09/04 07:16:02;;;;;;;3.00;1.42;;;16.20;95.60;;;;;;4993966;28;20197;-80
2022/09/04 07:18:49;;;;;;;1.73;1.40;;;16.20;95.60;;;;;;4992861;28;20051;-80
2022/09/04 07:21:17;;;;;;;2.03;1.50;;;16.30;95.70;;;;;;4993675;28;20050;-79
2022/09/04 07:24:16;;;;;;;3.13;1.80;;;16.30;96.20;;;;;;4992406;28;20039;-78
2022/09/04 07:27:00;;;;;;;2.38;1.52;;;16.40;95.60;;;;;;4993397;28;20089;-78
2022/09/04 07:29:33;;;;;;;2.08;1.60;;;16.40;95.50;;;;;;4993303;28;20112;-78
2022/09/04 07:32:21;;;;;;;2.30;1.13;;;16.60;96.00;;;;;;4993359;28;20054;-80
2022/09/04 07:34:59;;;;;;;2.17;1.35;;;16.60;95.50;;;;;;4993879;28;20080;-81
2022/09/04 07:37:57;;;;;;;1.73;1.50;;;16.60;96.10;;;;;;4993898;28;20097;-81
2022/09/04 07:40:30;;;;;;;1.80;1.40;;;16.70;95.50;;;;;;4992206;28;20042;-80
2022/09/04 07:43:14;;;;;;;2.10;1.55;;;16.90;95.80;;;;;;4996274;28;20046;-80
2022/09/04 07:45:50;;;;;;;1.58;1.40;;;16.90;95.20;;;;;;4997647;28;20038;-80
2022/09/04 07:48:36;;;;;;;1.70;1.25;;;17.00;95.80;;;;;;4997292;28;20046;-78
2022/09/04 07:51:10;;;;;;;1.98;1.30;;;17.00;95.40;;;;;;4997768;28;20072;-79
2022/09/04 07:53:39;;;;;;;2.72;1.45;;;17.10;95.80;;;;;;4996400;28;20039;-79
2022/09/04 07:56:27;;;;;;;2.05;1.30;;;17.20;95.80;;;;;;4997081;28;20121;-80
2022/09/04 07:59:27;;;;;;;2.72;1.55;;;17.30;95.20;;;;;;4979268;28;20142;-81
2022/09/04 08:02:27;;;;;;;3.47;1.27;;;17.30;95.10;;;;;;4995632;28;20047;-82
2022/09/04 08:05:18;;;;;;;2.40;1.25;;;17.40;95.00;;;;;;4996683;28;20177;-81
2022/09/04 08:07:53;;;;;;;1.55;1.40;;;17.50;95.40;;;;;;4996617;28;20046;-81
2022/09/04 08:10:30;;;;;;;3.22;1.50;;;17.60;94.80;;;;;;4996860;28;20046;-80
2022/09/04 08:13:24;;;;;;;2.75;1.48;;;17.60;95.20;;;;;;4996541;28;20183;-81
2022/09/04 08:16:06;;;;;;;2.45;1.50;;;17.80;94.80;;;;;;4995690;28;20046;-80
2022/09/04 08:19:03;;;;;;;2.23;1.43;;;17.90;94.90;;;;;;4997071;28;20050;-80
2022/09/04 08:21:38;;;;;;;1.90;1.35;;;17.90;95.20;;;;;;4994675;28;20420;-80
2022/09/04 08:24:09;;;;;;;1.35;1.20;;;17.90;95.50;;;;;;4996281;28;20039;-80
2022/09/04 08:26:38;;;;;;;3.88;1.83;;;17.90;95.20;;;;;;4995966;28;20085;-79
2022/09/04 08:29:07;;;;;;;2.28;1.50;;;18.10;95.80;;;;;;4995881;28;20512;-79
2022/09/04 08:31:41;;;;;;;3.20;1.52;;;18.10;95.70;;;;;;4996072;28;20057;-79
2022/09/04 08:34:29;;;;;;;3.42;1.40;;;18.20;96.00;;;;;;4996396;28;20081;-79
2022/09/04 08:36:59;;;;;;;3.15;1.40;;;18.90;96.20;;;;;;4996424;28;20046;-80
2022/09/04 08:39:43;;;;;;;2.65;1.60;;;18.30;96.20;;;;;;4994865;28;20105;-80
2022/09/04 08:42:11;;;;;;;3.58;1.30;;;18.50;95.70;;;;;;4994884;28;20093;-80
2022/09/04 08:45:12;;;;;;;2.72;1.73;;;18.60;95.90;;;;;;4995213;28;20505;-78
2022/09/04 08:48:01;;;;;;;2.13;1.40;;;18.60;96.70;;;;;;4996347;28;20434;-81
2022/09/04 08:50:51;;;;;;;2.17;1.20;;;18.80;97.40;;;;;;4978935;28;20065;-80
2022/09/04 08:53:34;;;;;;;2.05;1.20;;;18.80;98.80;;;;;;4994919;28;20109;-81
2022/09/04 08:56:21;;;;;;;2.50;1.20;;;18.90;99.40;;;;;;4995279;28;20075;-80
2022/09/04 08:58:53;;;;;;;3.97;1.40;;;19.10;99.90;;;;;;4996157;28;20351;-79
2022/09/04 09:01:52;;;;;;;2.70;1.25;;;19.00;99.90;;;;;;4995568;28;20133;-81
2022/09/04 09:04:55;;;;;;;3.58;1.20;;;19.20;99.90;;;;;;4995063;28;20053;-81
2022/09/04 09:07:48;;;;;;;3.30;1.20;;;19.20;99.90;;;;;;4996007;28;20046;-80
2022/09/04 09:10:36;;;;;;;3.45;1.30;;;19.30;99.90;;;;;;4995867;28;20050;-79
2022/09/04 09:13:05;;;;;;;2.85;1.40;;;;;;;;;;4995685;28;20050;-80
2022/09/04 09:15:50;;;;;;;2.38;1.30;;;19.50;99.90;;;;;;4994572;28;20444;-80
2022/09/04 09:18:22;;;;;;;2.45;1.27;;;19.60;99.90;;;;;;4995358;28;20125;-81
2022/09/04 09:21:06;;;;;;;2.13;1.20;;;19.60;99.90;;;;;;4995016;28;20042;-79
2022/09/04 09:23:53;;;;;;;4.13;1.10;;;19.60;99.60;;;;;;4995289;28;20054;-79
2022/09/04 09:26:28;;;;;;;1.80;1.10;;;19.70;98.70;;;;;;4995171;28;20505;-79
2022/09/04 09:29:15;;;;;;;3.70;1.23;;;19.80;98.20;;;;;;4995809;28;20046;-80
2022/09/04 09:32:11;;;;;;;1.73;1.17;;;19.70;96.90;;;;;;4995574;28;20062;-80
2022/09/04 09:35:07;;;;;;;2.28;1.40;;;19.80;96.60;;;;;;4995471;28;20071;-79
2022/09/04 09:38:14;;;;;;;1.77;1.52;;;19.90;96.00;;;;;;4995369;28;20054;-79
2022/09/04 09:40:40;;;;;;;2.33;1.02;;;20.00;95.90;;;;;;4993565;28;20074;-79
2022/09/04 09:43:23;;;;;;;3.70;1.10;;;20.00;95.70;;;;;;4994867;28;20049;-80
2022/09/04 09:46:09;;;;;;;1.55;1.08;;;20.20;95.30;;;;;;4995305;28;20050;-80
2022/09/04 09:48:49;;;;;;;3.25;1.30;;;20.20;95.00;;;;;;4993509;28;20058;-80
2022/09/04 09:51:44;;;;;;;2.60;1.20;;;20.20;94.50;;;;;;4994644;28;20050;-79
2022/09/04 09:54:42;;;;;;;3.55;1.13;;;20.20;93.60;;;;;;4995039;28;20108;-81
2022/09/04 09:57:34;;;;;;;3.15;1.10;;;20.40;94.10;;;;;;4992986;28;20108;-80
2022/09/04 10:00:10;;;;;;;2.88;1.27;;;20.30;90.60;;;;;;4995050;28;20050;-80
2022/09/04 10:03:25;;;;;;;3.17;1.23;;;20.40;90.50;;;;;;4995666;28;20064;-80
2022/09/04 10:06:10;;;;;;;1.55;1.10;;;20.50;90.40;;;;;;4994946;28;20042;-81
2022/09/04 10:08:48;;;;;;;3.28;1.33;;;20.60;90.20;;;;;;4994363;28;20054;-80
2022/09/04 10:11:44;;;;;;;3.47;1.20;;;20.70;89.80;;;;;;4995494;28;20057;-79
2022/09/04 10:14:50;;;;;;;1.88;1.00;;;20.70;89.60;;;;;;4995017;28;20049;-80
2022/09/04 10:17:35;;;;;;;1.83;0.80;;;20.80;90.20;;;;;;4977960;28;20053;-80
2022/09/04 10:20:33;;;;;;;1.63;1.00;;;20.80;89.40;;;;;;4995334;28;20057;-77
2022/09/04 10:23:04;;;;;;;2.33;1.10;;;20.90;90.00;;;;;;4994733;28;20085;-78
2022/09/04 10:25:48;;;;;;;2.03;1.20;;;21.00;89.50;;;;;;4995171;28;20141;-79
2022/09/04 10:28:47;;;;;;;2.13;0.90;;;21.00;89.60;;;;;;4994850;28;20177;-78
2022/09/04 10:31:44;;;;;;;3.90;1.10;;;21.10;89.20;;;;;;4994975;28;20057;-80
2022/09/04 10:34:55;;;;;;;2.15;1.00;;;21.30;90.80;;;;;;4993870;28;20042;-80
2022/09/04 10:37:50;;;;;;;1.90;0.98;;;21.20;91.70;;;;;;4994774;28;20113;-80
2022/09/04 10:40:53;;;;;;;1.80;1.17;;;21.40;91.10;;;;;;4994425;28;20052;-81
2022/09/04 10:43:49;;;;;;;2.10;1.20;;;21.50;91.40;;;;;;4994411;28;20104;-81
2022/09/04 10:46:36;;;;;;;3.92;0.98;;;21.50;88.50;;;;;;4994391;28;20054;-81
2022/09/04 10:49:14;;;;;;;1.38;0.93;;;21.50;87.90;;;;;;4994617;28;20096;-81
2022/09/04 10:52:05;;;;;;;1.73;1.10;;;21.60;87.40;;;;;;4994451;28;20506;-81
2022/09/04 10:54:43;;;;;;;4.60;1.15;;;21.70;87.10;;;;;;4995216;28;20054;-81
2022/09/04 10:57:31;;;;;;;1.65;1.00;;;21.80;86.30;;;;;;4993959;28;20178;-79
2022/09/04 11:00:18;;;;;;;2.75;1.00;;;21.90;86.40;;;;;;4994885;28;20050;-80
2022/09/04 11:03:05;;;;;;;1.98;0.90;;;21.90;86.10;;;;;;4994051;28;20489;-77
2022/09/04 11:06:09;;;;;;;1.73;1.05;;;22.00;85.70;;;;;;4994043;28;20042;-79
2022/09/04 11:09:00;;;;;;;4.40;1.08;;;22.00;86.00;;;;;;4994298;28;20069;-79
2022/09/04 11:12:08;;;;;;;3.20;1.10;;;22.10;87.30;;;;;;4994095;28;20474;-78
2022/09/04 11:14:48;;;;;;;2.80;1.05;;;22.20;90.60;;;;;;4994505;28;20043;-79
2022/09/04 11:17:51;;;;;;;2.55;1.00;;;22.30;91.30;;;;;;4993317;28;20073;-79
2022/09/04 11:20:43;;;;;;;2.08;1.10;;;22.30;91.20;;;;;;4993943;28;20046;-81
2022/09/04 11:23:38;;;;;;;3.45;1.10;;;22.40;90.80;;;;;;4993975;28;20078;-80
2022/09/04 11:26:38;;;;;;;4.60;0.90;;;22.40;90.70;;;;;;4976137;28;20058;-81
2022/09/04 11:29:26;;;;;;;6.85;1.58;;;22.40;96.80;;;;;;4993915;28;20465;-80
2022/09/04 11:31:51;;;;;;;1.17;1.08;;;22.40;83.30;;;;;;4994313;28;20053;-80
2022/09/04 11:34:47;;;;;;;2.15;1.00;;;22.50;87.30;;;;;;4993533;28;20383;-79
2022/09/04 11:37:46;;;;;;;1.55;1.00;;;22.50;83.00;;;;;;4992600;28;20054;-78
2022/09/04 11:40:44;;;;;;;2.15;1.20;;;22.50;82.90;;;;;;4993684;28;20129;-79
2022/09/04 11:43:43;;;;;;;2.92;1.20;;;22.50;83.50;;;;;;4993690;28;20061;-73
2022/09/04 11:46:16;;;;;;;1.70;0.90;;;22.50;83.40;;;;;;4994025;28;20046;-78
2022/09/04 11:49:12;;;;;;;3.08;0.95;;;22.60;83.30;;;;;;4994321;28;20054;-79
2022/09/04 11:52:13;;;;;;;1.85;1.00;;;22.60;83.70;;;;;;4993884;28;20054;-79
2022/09/04 11:54:41;;;;;;;4.63;1.45;;;22.70;83.40;;;;;;4992925;28;20058;-80
2022/09/04 11:57:29;;;;;;;1.92;1.30;;;22.80;82.80;;;;;;4993571;28;20046;-79
2022/09/04 12:00:12;;;;;;;2.67;1.00;;;22.90;82.00;;;;;;4992820;28;20074;-79
2022/09/04 12:02:55;;;;;;;2.53;1.20;;;23.00;81.90;;;;;;4994240;28;20072;-79
2022/09/04 12:05:39;;;;;;;2.95;1.13;;;23.00;81.70;;;;;;4994010;28;20421;-80
2022/09/04 12:08:26;;;;;;;2.67;1.02;;;23.10;81.30;;;;;;4992529;28;20054;-77
2022/09/04 12:11:13;;;;;;;3.90;1.02;;;23.10;80.80;;;;;;4993571;28;20057;-80
2022/09/04 12:14:24;;;;;;;2.20;1.10;;;23.20;80.70;;;;;;4994348;28;20395;-79
2022/09/04 12:17:07;;;;;;;2.65;1.08;;;23.20;80.70;;;;;;4992048;28;20418;-79
2022/09/04 12:19:51;;;;;;;2.95;1.10;;;23.20;80.00;;;;;;4993960;28;20054;-79
2022/09/04 12:22:38;;;;;;;2.45;1.10;;;23.30;80.10;;;;;;4992867;28;20467;-78
2022/09/04 12:25:22;;;;;;;1.38;1.02;;;23.30;79.60;;;;;;4993556;28;20081;-74
2022/09/04 12:28:19;;;;;;;1.52;0.93;;;23.30;80.00;;;;;;4992569;28;20049;-79
2022/09/04 12:31:00;;;;;;;2.13;1.17;;;23.30;80.20;;;;;;4996031;28;20140;-75
2022/09/04 12:33:28;;;;;;;4.53;1.00;;;23.40;80.10;;;;;;4997489;28;20050;-71
2022/09/04 12:36:13;;;;;;;1.23;0.95;;;23.40;79.90;;;;;;4997188;28;20548;-77
2022/09/04 12:38:59;;;;;;;2.10;1.00;;;23.50;80.30;;;;;;4996606;28;20050;-78
2022/09/04 12:41:40;;;;;;;2.08;0.90;;;23.50;80.10;;;;;;4996878;28;20057;-78
2022/09/04 12:44:57;;;;;;;2.50;1.00;;;23.60;79.90;;;;;;4997258;28;20085;-78
2022/09/04 12:47:44;;;;;;;3.63;1.10;;;23.70;79.40;;;;;;4994960;28;20137;-77
2022/09/04 12:50:20;;;;;;;1.30;1.00;;;23.70;79.00;;;;;;4996319;28;20054;-76
2022/09/04 12:53:07;;;;;;;2.95;1.17;;;23.70;79.30;;;;;;4995958;28;20050;-76
2022/09/04 12:55:57;;;;;;;2.20;1.17;;;23.80;78.90;;;;;;4995147;28;20046;-77
2022/09/04 12:58:35;;;;;;;2.10;1.13;;;23.80;79.10;;;;;;4995546;28;20139;-78
2022/09/04 13:01:14;;;;;;;1.80;1.08;;;23.80;78.70;;;;;;4996092;28;20096;-75
2022/09/04 13:03:53;;;;;;;2.78;0.90;;;23.90;78.90;;;;;;4994004;28;20509;-79
2022/09/04 13:06:45;;;;;;;3.80;1.30;;;23.90;78.20;;;;;;4995798;28;20034;-78
2022/09/04 13:09:34;;;;;;;1.30;1.10;;;23.90;78.40;;;;;;4996002;28;20054;-77
2022/09/04 13:12:02;;;;;;;3.60;0.90;;;23.90;78.50;;;;;;4995612;28;20171;-77
2022/09/04 13:14:40;;;;;;;1.83;1.00;;;23.90;77.60;;;;;;4994736;28;20093;-76
2022/09/04 13:17:24;;;;;;;2.17;1.02;;;24.00;77.70;;;;;;4995473;28;20506;-77
2022/09/04 13:20:17;;;;;;;1.60;0.90;;;24.00;77.60;;;;;;4995404;28;20050;-77
2022/09/04 13:23:10;;;;;;;1.85;0.90;;;24.10;77.80;;;;;;4995604;28;20058;-75
2022/09/04 13:25:54;;;;;;;1.75;0.82;;;24.10;78.20;;;;;;4995643;28;20082;-76
2022/09/04 13:28:45;;;;;;;3.28;1.08;;;24.20;77.40;;;;;;4995762;28;20050;-76
2022/09/04 13:31:32;;;;;;;1.45;1.00;;;24.30;77.20;;;;;;4995040;28;20485;-77
2022/09/04 13:34:36;;;;;;;2.28;1.25;;;24.30;77.00;;;;;;4993806;28;20050;-76
2022/09/04 13:37:07;;;;;;;2.30;0.95;;;24.30;76.30;;;;;;4993061;28;20138;-77
2022/09/04 13:39:59;;;;;;;2.50;0.80;;;24.30;76.10;;;;;;4994282;28;20050;-76
2022/09/04 13:42:53;;;;;;;2.05;0.80;;;24.40;76.50;;;;;;4995026;28;20089;-76
2022/09/04 13:45:27;;;;;;;1.00;0.75;;;24.40;76.70;;;;;;4993926;28;20046;-75
2022/09/04 13:48:03;;;;;;;2.25;1.00;;;24.40;76.30;;;;;;4994044;28;20463;-74
2022/09/04 13:50:34;;;;;;;2.45;0.90;;;24.20;76.50;;;;;;4994332;28;20134;-77
2022/09/04 13:53:41;;;;;;;1.95;0.90;;;24.50;76.60;;;;;;4995233;28;20085;-76
2022/09/04 13:56:15;;;;;;;1.55;1.00;;;24.50;76.60;;;;;;4994084;28;20128;-77
2022/09/04 13:58:50;;;;;;;2.28;0.90;;;24.50;75.80;;;;;;4993430;28;20101;-76
2022/09/04 14:01:20;;;;;;;2.20;0.70;;;24.50;75.70;;;;;;4993895;28;20049;-76
2022/09/04 14:03:59;;;;;;;1.00;0.90;;;24.60;75.30;;;;;;4995326;28;20050;-77
2022/09/04 14:06:28;;;;;;;1.20;0.80;;;24.60;75.10;;;;;;4993397;28;20128;-77
2022/09/04 14:08:57;;;;;;;1.42;0.82;;;24.60;75.30;;;;;;4994916;28;20082;-78
2022/09/04 14:11:55;;;;;;;1.27;0.90;;;24.60;75.10;;;;;;4994379;28;20050;-75
2022/09/04 14:14:58;;;;;;;1.85;0.80;;;24.60;75.20;;;;;;4993822;28;20501;-76
2022/09/04 14:17:32;;;;;;;1.33;1.10;;;24.60;75.60;;;;;;4994379;28;20058;-77
2022/09/04 14:20:13;;;;;;;3.92;1.40;;;24.60;75.50;;;;;;4994176;28;20477;-77
2022/09/04 14:23:11;;;;;;;1.13;0.90;;;24.60;75.50;;;;;;4994263;28;20042;-76
2022/09/04 14:25:58;;;;;;;1.88;1.00;;;24.60;75.60;;;;;;4993980;28;20086;-77